createdAt,value
2016-05-15T00:00:25.296Z,0
2016-05-15T00:01:24.940Z,0
2016-05-15T00:02:25.082Z,0
2016-05-15T00:03:25.211Z,0
2016-05-15T00:04:25.527Z,0
2016-05-15T00:05:25.169Z,0
2016-05-15T00:06:25.157Z,0
2016-05-15T00:07:25.174Z,0
2016-05-15T00:08:25.129Z,0
2016-05-15T00:09:25.101Z,0
2016-05-15T00:10:25.074Z,0
2016-05-15T00:11:24.935Z,0
2016-05-15T00:12:24.891Z,0
2016-05-15T00:13:25.050Z,0
2016-05-15T00:14:25.021Z,0
2016-05-15T00:15:24.993Z,0
2016-05-15T00:16:24.964Z,0
2016-05-15T00:17:24.983Z,0
2016-05-15T00:18:24.954Z,0
2016-05-15T00:19:25.488Z,0
2016-05-15T00:20:24.912Z,0
2016-05-15T00:21:24.900Z,0
2016-05-15T00:22:24.871Z,0
2016-05-15T00:23:24.859Z,0
2016-05-15T00:24:24.845Z,0
2016-05-15T00:25:24.801Z,0
2016-05-15T00:26:24.788Z,0
2016-05-15T00:27:24.775Z,0
2016-05-15T00:28:24.762Z,0
2016-05-15T00:29:24.733Z,0
2016-05-15T00:30:24.721Z,0
2016-05-15T00:31:24.552Z,0
2016-05-15T00:32:24.570Z,0
2016-05-15T00:33:24.682Z,0
2016-05-15T00:34:24.435Z,0
2016-05-15T00:35:24.624Z,0
2016-05-15T00:36:24.627Z,0
2016-05-15T00:37:24.443Z,0
2016-05-15T00:38:24.570Z,0
2016-05-15T00:39:24.573Z,0
2016-05-15T00:40:24.576Z,0
2016-05-15T00:41:24.547Z,0
2016-05-15T00:42:24.503Z,0
2016-05-15T00:43:24.490Z,0
2016-05-15T00:44:24.493Z,0
2016-05-15T00:45:24.151Z,0
2016-05-15T00:46:24.373Z,0
2016-05-15T00:47:24.267Z,0
2016-05-15T00:48:24.394Z,0
2016-05-15T00:49:24.398Z,0
2016-05-15T00:50:24.384Z,0
2016-05-15T00:51:24.200Z,0
2016-05-15T00:52:24.342Z,0
2016-05-15T00:53:24.158Z,0
2016-05-15T00:54:24.691Z,0
2016-05-15T00:55:23.975Z,0
2016-05-15T00:56:23.963Z,0
2016-05-15T00:57:24.091Z,0
2016-05-15T00:58:24.218Z,0
2016-05-15T00:59:23.908Z,0
2016-05-15T01:00:24.192Z,0
2016-05-15T01:01:24.163Z,0
2016-05-15T01:02:24.150Z,0
2016-05-15T01:03:46.841Z,0
2016-05-15T01:04:24.438Z,0
2016-05-15T01:05:23.955Z,0
2016-05-15T01:06:24.083Z,0
2016-05-15T01:07:24.071Z,0
2016-05-15T01:08:23.901Z,0
2016-05-15T01:09:23.873Z,0
2016-05-15T01:10:24.001Z,0
2016-05-15T01:11:24.004Z,0
2016-05-15T01:12:23.974Z,0
2016-05-15T01:13:23.805Z,0
2016-05-15T01:14:23.776Z,0
2016-05-15T01:15:23.935Z,0
2016-05-15T01:16:23.735Z,0
2016-05-15T01:17:23.894Z,0
2016-05-15T01:18:23.881Z,0
2016-05-15T01:19:23.568Z,0
2016-05-15T01:20:23.665Z,0
2016-05-15T01:21:23.652Z,0
2016-05-15T01:22:23.656Z,0
2016-05-15T01:23:23.770Z,0
2016-05-15T01:24:23.614Z,0
2016-05-15T01:25:23.725Z,0
2016-05-15T01:26:23.416Z,0
2016-05-15T01:27:23.731Z,0
2016-05-15T01:28:23.546Z,0
2016-05-15T01:29:23.674Z,0
2016-05-15T01:30:23.333Z,0
2016-05-15T01:31:23.491Z,0
2016-05-15T01:32:23.291Z,0
2016-05-15T01:33:23.575Z,0
2016-05-15T01:34:23.297Z,0
2016-05-15T01:35:23.549Z,0
2016-05-15T01:36:23.552Z,0
2016-05-15T01:37:23.539Z,0
2016-05-15T01:38:23.510Z,0
2016-05-15T01:39:23.466Z,0
2016-05-15T01:40:23.313Z,0
2016-05-15T01:41:22.987Z,0
2016-05-15T01:42:23.412Z,0
2016-05-15T01:43:23.398Z,0
2016-05-15T01:44:23.385Z,0
2016-05-15T01:45:23.217Z,0
2016-05-15T01:46:23.344Z,0
2016-05-15T01:47:23.331Z,0
2016-05-15T01:48:23.318Z,0
2016-05-15T01:49:23.931Z,0
2016-05-15T01:50:23.293Z,0
2016-05-15T01:51:23.092Z,0
2016-05-15T01:52:23.079Z,0
2016-05-15T01:53:23.050Z,0
2016-05-15T01:54:23.195Z,0
2016-05-15T01:55:23.181Z,0
2016-05-15T01:56:23.200Z,0
2016-05-15T01:57:23.217Z,0
2016-05-15T01:58:23.158Z,0
2016-05-15T01:59:23.098Z,0
2016-05-15T02:00:23.085Z,0
2016-05-15T02:01:22.916Z,0
2016-05-15T02:02:23.044Z,0
2016-05-15T02:03:22.875Z,0
2016-05-15T02:04:23.361Z,0
2016-05-15T02:05:22.989Z,0
2016-05-15T02:06:22.991Z,0
2016-05-15T02:07:22.979Z,0
2016-05-15T02:08:22.950Z,0
2016-05-15T02:09:23.109Z,0
2016-05-15T02:10:22.910Z,0
2016-05-15T02:11:22.927Z,0
2016-05-15T02:12:23.352Z,0
2016-05-15T02:13:22.854Z,0
2016-05-15T02:14:22.827Z,0
2016-05-15T02:15:22.798Z,0
2016-05-15T02:16:22.800Z,0
2016-05-15T02:17:22.788Z,0
2016-05-15T02:18:22.806Z,0
2016-05-15T02:19:22.667Z,0
2016-05-15T02:20:22.733Z,0
2016-05-15T02:21:22.704Z,0
2016-05-15T02:22:22.676Z,0
2016-05-15T02:23:22.662Z,0
2016-05-15T02:24:22.665Z,0
2016-05-15T02:25:22.621Z,0
2016-05-15T02:26:22.452Z,0
2016-05-15T02:27:22.580Z,0
2016-05-15T02:28:22.583Z,0
2016-05-15T02:29:22.554Z,0
2016-05-15T02:30:22.541Z,0
2016-05-15T02:31:22.216Z,0
2016-05-15T02:32:22.499Z,0
2016-05-15T02:33:22.487Z,0
2016-05-15T02:34:22.864Z,0
2016-05-15T02:35:22.444Z,0
2016-05-15T02:36:22.432Z,0
2016-05-15T02:37:22.403Z,0
2016-05-15T02:38:22.235Z,0
2016-05-15T02:39:22.221Z,0
2016-05-15T02:40:22.193Z,0
2016-05-15T02:41:22.368Z,0
2016-05-15T02:42:22.166Z,0
2016-05-15T02:43:22.138Z,0
2016-05-15T02:44:21.969Z,0
2016-05-15T02:45:22.254Z,0
2016-05-15T02:46:22.443Z,0
2016-05-15T02:47:22.227Z,0
2016-05-15T02:48:22.198Z,0
2016-05-15T02:49:22.232Z,0
2016-05-15T02:50:22.173Z,0
2016-05-15T02:51:22.159Z,0
2016-05-15T02:52:21.976Z,0
2016-05-15T02:53:22.103Z,0
2016-05-15T02:54:21.948Z,0
2016-05-15T02:55:22.061Z,0
2016-05-15T02:56:22.048Z,0
2016-05-15T02:57:21.879Z,0
2016-05-15T02:58:22.006Z,0
2016-05-15T02:59:21.995Z,0
2016-05-15T03:00:21.981Z,0
2016-05-15T03:01:21.811Z,0
2016-05-15T03:02:21.939Z,0
2016-05-15T03:03:21.770Z,0
2016-05-15T03:04:22.366Z,0
2016-05-15T03:05:21.744Z,0
2016-05-15T03:06:21.872Z,0
2016-05-15T03:07:21.703Z,0
2016-05-15T03:08:21.721Z,0
2016-05-15T03:09:21.646Z,0
2016-05-15T03:10:21.649Z,0
2016-05-15T03:11:21.776Z,0
2016-05-15T03:12:21.747Z,0
2016-05-15T03:13:21.594Z,0
2016-05-15T03:14:21.707Z,0
2016-05-15T03:15:21.709Z,0
2016-05-15T03:16:21.743Z,0
2016-05-15T03:17:21.527Z,0
2016-05-15T03:18:21.638Z,0
2016-05-15T03:19:22.376Z,0
2016-05-15T03:20:21.643Z,0
2016-05-15T03:21:21.616Z,0
2016-05-15T03:22:21.587Z,0
2016-05-15T03:23:21.261Z,0
2016-05-15T03:24:21.218Z,0
2016-05-15T03:25:21.517Z,0
2016-05-15T03:26:21.488Z,0
2016-05-15T03:27:21.476Z,0
2016-05-15T03:28:21.462Z,0
2016-05-15T03:29:21.434Z,0
2016-05-15T03:30:21.264Z,0
2016-05-15T03:31:21.252Z,0
2016-05-15T03:32:21.380Z,0
2016-05-15T03:33:21.366Z,0
2016-05-15T03:34:21.760Z,0
2016-05-15T03:35:21.372Z,0
2016-05-15T03:36:21.312Z,0
2016-05-15T03:37:21.143Z,0
2016-05-15T03:38:21.271Z,0
2016-05-15T03:39:21.117Z,0
2016-05-15T03:40:21.088Z,5
2016-05-15T03:41:21.232Z,5
2016-05-15T03:42:21.047Z,5
2016-05-15T03:43:21.019Z,5
2016-05-15T03:44:21.162Z,5
2016-05-15T03:45:20.976Z,5
2016-05-15T03:46:21.136Z,5
2016-05-15T03:47:20.951Z,5
2016-05-15T03:48:21.093Z,5
2016-05-15T03:49:21.207Z,5
2016-05-15T03:50:21.054Z,10
2016-05-15T03:51:21.040Z,10
2016-05-15T03:52:21.011Z,10
2016-05-15T03:53:21.015Z,10
2016-05-15T03:54:20.970Z,10
2016-05-15T03:55:20.831Z,10
2016-05-15T03:56:20.804Z,10
2016-05-15T03:57:20.947Z,10
2016-05-15T03:58:20.590Z,10
2016-05-15T03:59:20.889Z,15
2016-05-15T04:00:20.876Z,15
2016-05-15T04:01:20.708Z,15
2016-05-15T04:02:20.694Z,15
2016-05-15T04:03:20.822Z,15
2016-05-15T04:04:21.137Z,15
2016-05-15T04:05:20.781Z,15
2016-05-15T04:06:20.767Z,15
2016-05-15T04:07:20.739Z,20
2016-05-15T04:08:20.570Z,20
2016-05-15T04:09:20.697Z,20
2016-05-15T04:10:20.544Z,20
2016-05-15T04:11:20.516Z,20
2016-05-15T04:12:20.347Z,20
2016-05-15T04:13:20.474Z,20
2016-05-15T04:14:20.460Z,20
2016-05-15T04:15:20.605Z,25
2016-05-15T04:16:20.279Z,25
2016-05-15T04:17:20.250Z,25
2016-05-15T04:18:20.535Z,25
2016-05-15T04:19:20.381Z,25
2016-05-15T04:20:20.509Z,25
2016-05-15T04:21:20.340Z,25
2016-05-15T04:22:20.327Z,25
2016-05-15T04:23:20.454Z,30
2016-05-15T04:24:20.440Z,30
2016-05-15T04:25:20.429Z,30
2016-05-15T04:26:20.259Z,35
2016-05-15T04:27:20.403Z,35
2016-05-15T04:28:20.373Z,30
2016-05-15T04:29:20.345Z,30
2016-05-15T04:30:20.317Z,30
2016-05-15T04:31:20.194Z,30
2016-05-15T04:32:20.322Z,30
2016-05-15T04:33:20.262Z,35
2016-05-15T04:34:20.297Z,35
2016-05-15T04:35:20.220Z,35
2016-05-15T04:36:20.223Z,35
2016-05-15T04:37:20.055Z,35
2016-05-15T04:38:20.166Z,35
2016-05-15T04:39:20.028Z,35
2016-05-15T04:40:20.172Z,35
2016-05-15T04:41:20.127Z,35
2016-05-15T04:42:20.114Z,35
2016-05-15T04:43:20.086Z,35
2016-05-15T04:44:20.073Z,35
2016-05-15T04:45:20.060Z,30
2016-05-15T04:46:20.078Z,30
2016-05-15T04:47:20.003Z,25
2016-05-15T04:48:19.990Z,25
2016-05-15T04:49:20.008Z,30
2016-05-15T04:50:19.965Z,35
2016-05-15T04:51:19.795Z,35
2016-05-15T04:52:19.923Z,35
2016-05-15T04:53:19.910Z,35
2016-05-15T04:54:19.740Z,40
2016-05-15T04:55:19.853Z,40
2016-05-15T04:56:19.856Z,45
2016-05-15T04:57:19.843Z,40
2016-05-15T04:58:19.814Z,40
2016-05-15T04:59:19.801Z,40
2016-05-15T05:00:19.772Z,45
2016-05-15T05:01:19.634Z,45
2016-05-15T05:02:19.606Z,45
2016-05-15T05:03:19.717Z,45
2016-05-15T05:04:19.721Z,45
2016-05-15T05:05:19.692Z,45
2016-05-15T05:06:19.694Z,45
2016-05-15T05:07:19.651Z,50
2016-05-15T05:08:19.638Z,55
2016-05-15T05:09:19.624Z,55
2016-05-15T05:10:19.440Z,60
2016-05-15T05:11:19.583Z,55
2016-05-15T05:12:19.570Z,55
2016-05-15T05:13:19.385Z,55
2016-05-15T05:14:19.544Z,55
2016-05-15T05:15:19.516Z,65
2016-05-15T05:16:19.362Z,70
2016-05-15T05:17:19.474Z,75
2016-05-15T05:18:19.493Z,80
2016-05-15T05:19:19.761Z,80
2016-05-15T05:20:19.435Z,80
2016-05-15T05:21:19.407Z,80
2016-05-15T05:22:19.394Z,85
2016-05-15T05:23:19.381Z,90
2016-05-15T05:24:19.196Z,90
2016-05-15T05:25:19.339Z,95
2016-05-15T05:26:19.327Z,105
2016-05-15T05:27:19.314Z,110
2016-05-15T05:28:18.972Z,115
2016-05-15T05:29:19.288Z,110
2016-05-15T05:30:19.259Z,110
2016-05-15T05:31:19.074Z,115
2016-05-15T05:32:19.217Z,115
2016-05-15T05:33:19.190Z,115
2016-05-15T05:34:19.958Z,105
2016-05-15T05:35:19.163Z,105
2016-05-15T05:36:19.167Z,100
2016-05-15T05:37:18.981Z,95
2016-05-15T05:38:18.952Z,90
2016-05-15T05:39:19.096Z,85
2016-05-15T05:40:19.099Z,80
2016-05-15T05:41:19.070Z,80
2016-05-15T05:42:19.041Z,75
2016-05-15T05:43:18.872Z,75
2016-05-15T05:44:19.016Z,80
2016-05-15T05:45:19.033Z,85
2016-05-15T05:46:18.990Z,85
2016-05-15T05:47:18.961Z,85
2016-05-15T05:48:18.808Z,90
2016-05-15T05:49:19.669Z,95
2016-05-15T05:50:18.922Z,100
2016-05-15T05:51:18.738Z,105
2016-05-15T05:52:18.881Z,110
2016-05-15T05:53:18.712Z,110
2016-05-15T05:54:18.855Z,110
2016-05-15T05:55:18.685Z,115
2016-05-15T05:56:18.657Z,120
2016-05-15T05:57:18.676Z,130
2016-05-15T05:58:18.772Z,135
2016-05-15T05:59:18.759Z,120
2016-05-15T06:00:18.589Z,105
2016-05-15T06:01:18.734Z,110
2016-05-15T06:02:18.548Z,125
2016-05-15T06:03:18.692Z,120
2016-05-15T06:04:18.914Z,110
2016-05-15T06:05:18.666Z,115
2016-05-15T06:06:18.497Z,125
2016-05-15T06:07:18.468Z,135
2016-05-15T06:08:18.455Z,135
2016-05-15T06:09:18.614Z,130
2016-05-15T06:10:18.585Z,120
2016-05-15T06:11:18.558Z,100
2016-05-15T06:12:18.544Z,85
2016-05-15T06:13:18.375Z,80
2016-05-15T06:14:18.549Z,80
2016-05-15T06:15:18.505Z,85
2016-05-15T06:16:18.321Z,85
2016-05-15T06:17:18.307Z,90
2016-05-15T06:18:18.452Z,95
2016-05-15T06:19:18.438Z,90
2016-05-15T06:20:18.424Z,85
2016-05-15T06:21:18.100Z,75
2016-05-15T06:22:18.399Z,65
2016-05-15T06:23:18.214Z,65
2016-05-15T06:24:18.357Z,65
2016-05-15T06:25:18.329Z,60
2016-05-15T06:26:18.176Z,55
2016-05-15T06:27:18.303Z,55
2016-05-15T06:28:18.290Z,55
2016-05-15T06:29:18.121Z,55
2016-05-15T06:30:18.248Z,60
2016-05-15T06:31:18.282Z,60
2016-05-15T06:32:18.067Z,65
2016-05-15T06:33:18.195Z,70
2016-05-15T06:34:18.306Z,80
2016-05-15T06:35:18.012Z,90
2016-05-15T06:36:18.156Z,90
2016-05-15T06:37:17.986Z,85
2016-05-15T06:38:18.114Z,80
2016-05-15T06:39:17.944Z,85
2016-05-15T06:40:17.948Z,90
2016-05-15T06:41:18.075Z,95
2016-05-15T06:42:18.046Z,100
2016-05-15T06:43:18.034Z,100
2016-05-15T06:44:18.021Z,100
2016-05-15T06:45:18.024Z,95
2016-05-15T06:46:18.197Z,95
2016-05-15T06:47:18.045Z,100
2016-05-15T06:48:17.969Z,105
2016-05-15T06:49:18.237Z,105
2016-05-15T06:50:17.772Z,110
2016-05-15T06:51:17.743Z,120
2016-05-15T06:52:17.901Z,125
2016-05-15T06:53:17.873Z,135
2016-05-15T06:54:17.860Z,140
2016-05-15T06:55:17.863Z,150
2016-05-15T06:56:17.521Z,165
2016-05-15T06:57:17.806Z,180
2016-05-15T06:58:17.637Z,195
2016-05-15T06:59:17.623Z,185
2016-05-15T07:00:17.610Z,180
2016-05-15T07:01:17.598Z,180
2016-05-15T07:02:17.741Z,185
2016-05-15T07:03:17.775Z,195
2016-05-15T07:04:17.840Z,210
2016-05-15T07:05:17.531Z,210
2016-05-15T07:06:17.673Z,205
2016-05-15T07:07:17.503Z,210
2016-05-15T07:08:17.507Z,210
2016-05-15T07:09:17.634Z,185
2016-05-15T07:10:17.606Z,165
2016-05-15T07:11:17.593Z,170
2016-05-15T07:12:17.581Z,175
2016-05-15T07:13:17.411Z,160
2016-05-15T07:14:17.585Z,145
2016-05-15T07:15:17.386Z,120
2016-05-15T07:16:17.560Z,120
2016-05-15T07:17:17.500Z,110
2016-05-15T07:18:17.550Z,110
2016-05-15T07:19:17.693Z,90
2016-05-15T07:20:17.461Z,70
2016-05-15T07:21:17.276Z,85
2016-05-15T07:22:17.451Z,95
2016-05-15T07:23:17.391Z,105
2016-05-15T07:24:17.254Z,120
2016-05-15T07:25:17.209Z,110
2016-05-15T07:26:17.368Z,95
2016-05-15T07:27:17.183Z,85
2016-05-15T07:28:17.310Z,80
2016-05-15T07:29:17.157Z,105
2016-05-15T07:30:17.301Z,120
2016-05-15T07:31:17.304Z,135
2016-05-15T07:32:16.946Z,140
2016-05-15T07:33:17.090Z,135
2016-05-15T07:34:17.781Z,125
2016-05-15T07:35:17.064Z,125
2016-05-15T07:36:17.050Z,120
2016-05-15T07:37:17.195Z,115
2016-05-15T07:38:17.166Z,105
2016-05-15T07:39:17.173Z,105
2016-05-15T07:40:17.188Z,125
2016-05-15T07:41:17.235Z,140
2016-05-15T07:42:17.248Z,170
2016-05-15T07:43:17.310Z,185
2016-05-15T07:44:17.297Z,185
2016-05-15T07:45:17.300Z,185
2016-05-15T07:46:17.303Z,190
2016-05-15T07:47:17.321Z,205
2016-05-15T07:48:17.292Z,225
2016-05-15T07:49:17.728Z,230
2016-05-15T07:50:16.986Z,235
2016-05-15T07:51:17.260Z,250
2016-05-15T07:52:17.268Z,285
2016-05-15T07:53:29.745Z,290
2016-05-15T07:54:17.095Z,410
2016-05-15T07:55:17.318Z,270
2016-05-15T07:56:17.057Z,1490
2016-05-15T07:57:17.061Z,1065
2016-05-15T07:58:17.191Z,270
2016-05-15T07:59:17.023Z,1490
2016-05-15T08:00:17.168Z,1480
2016-05-15T08:01:16.999Z,1450
2016-05-15T08:02:17.174Z,940
2016-05-15T08:03:16.990Z,1385
2016-05-15T08:04:17.493Z,1115
2016-05-15T08:05:17.090Z,1700
2016-05-15T08:06:17.124Z,1625
2016-05-15T08:07:17.082Z,1740
2016-05-15T08:08:17.069Z,515
2016-05-15T08:09:17.102Z,380
2016-05-15T08:10:17.059Z,380
2016-05-15T08:11:17.046Z,380
2016-05-15T08:12:17.048Z,385
2016-05-15T08:13:17.019Z,415
2016-05-15T08:14:16.866Z,400
2016-05-15T08:15:16.854Z,560
2016-05-15T08:16:17.012Z,1420
2016-05-15T08:17:16.984Z,515
2016-05-15T08:18:16.815Z,345
2016-05-15T08:19:18.098Z,795
2016-05-15T08:20:16.804Z,425
2016-05-15T08:21:16.791Z,265
2016-05-15T08:22:16.935Z,520
2016-05-15T08:23:16.937Z,405
2016-05-15T08:24:16.893Z,215
2016-05-15T08:25:16.771Z,230
2016-05-15T08:26:16.929Z,250
2016-05-15T08:27:16.886Z,285
2016-05-15T08:28:16.716Z,355
2016-05-15T08:29:16.907Z,545
2016-05-15T08:30:16.862Z,550
2016-05-15T08:31:16.708Z,505
2016-05-15T08:32:16.680Z,410
2016-05-15T08:33:16.698Z,675
2016-05-15T08:34:16.561Z,480
2016-05-15T08:35:16.500Z,475
2016-05-15T08:36:16.645Z,350
2016-05-15T08:37:16.803Z,345
2016-05-15T08:38:16.790Z,300
2016-05-15T08:39:16.762Z,310
2016-05-15T08:40:16.749Z,265
2016-05-15T08:41:16.735Z,220
2016-05-15T08:42:16.582Z,225
2016-05-15T08:43:16.710Z,250
2016-05-15T08:44:16.713Z,250
2016-05-15T08:45:16.684Z,210
2016-05-15T08:46:17.093Z,165
2016-05-15T08:47:16.674Z,150
2016-05-15T08:48:16.535Z,150
2016-05-15T08:49:16.507Z,145
2016-05-15T08:50:16.651Z,135
2016-05-15T08:51:16.638Z,130
2016-05-15T08:52:16.624Z,145
2016-05-15T08:53:16.612Z,185
2016-05-15T08:54:16.614Z,240
2016-05-15T08:55:16.586Z,325
2016-05-15T08:56:16.573Z,1000
2016-05-15T08:57:16.404Z,1040
2016-05-15T08:58:16.406Z,660
2016-05-15T08:59:16.378Z,640
2016-05-15T09:00:16.396Z,520
2016-05-15T09:01:16.492Z,610
2016-05-15T09:02:16.511Z,530
2016-05-15T09:03:16.326Z,505
2016-05-15T09:04:16.531Z,1080
2016-05-15T09:05:16.473Z,600
2016-05-15T09:06:16.287Z,650
2016-05-15T09:07:16.430Z,560
2016-05-15T09:08:16.496Z,370
2016-05-15T09:09:16.419Z,610
2016-05-15T09:10:16.407Z,530
2016-05-15T09:11:16.223Z,820
2016-05-15T09:12:16.397Z,410
2016-05-15T09:13:16.212Z,270
2016-05-15T09:14:16.372Z,250
2016-05-15T09:15:16.061Z,280
2016-05-15T09:16:16.329Z,350
2016-05-15T09:17:16.332Z,420
2016-05-15T09:18:16.305Z,475
2016-05-15T09:19:16.901Z,525
2016-05-15T09:20:16.512Z,510
2016-05-15T09:21:16.265Z,880
2016-05-15T09:22:16.111Z,455
2016-05-15T09:23:16.255Z,845
2016-05-15T09:24:16.257Z,470
2016-05-15T09:25:15.932Z,465
2016-05-15T09:26:16.060Z,540
2016-05-15T09:27:16.218Z,520
2016-05-15T09:28:16.034Z,375
2016-05-15T09:29:16.193Z,380
2016-05-15T09:30:16.180Z,435
2016-05-15T09:31:16.167Z,420
2016-05-15T09:32:16.170Z,495
2016-05-15T09:33:15.828Z,490
2016-05-15T09:34:15.831Z,490
2016-05-15T09:35:16.303Z,485
2016-05-15T09:36:16.133Z,510
2016-05-15T09:37:16.120Z,580
2016-05-15T09:38:15.780Z,545
2016-05-15T09:39:15.751Z,510
2016-05-15T09:40:16.066Z,480
2016-05-15T09:41:16.069Z,400
2016-05-15T09:42:16.041Z,335
2016-05-15T09:43:16.027Z,270
2016-05-15T09:44:16.030Z,235
2016-05-15T09:45:16.016Z,270
2016-05-15T09:46:15.849Z,230
2016-05-15T09:47:15.991Z,245
2016-05-15T09:48:15.963Z,250
2016-05-15T09:49:16.262Z,290
2016-05-15T09:50:16.390Z,395
2016-05-15T09:51:15.940Z,300
2016-05-15T09:52:15.927Z,1095
2016-05-15T09:53:15.929Z,365
2016-05-15T09:54:15.760Z,305
2016-05-15T09:55:15.903Z,885
2016-05-15T09:56:15.718Z,555
2016-05-15T09:57:15.862Z,310
2016-05-15T09:58:15.848Z,265
2016-05-15T09:59:15.852Z,410
2016-05-15T10:00:15.839Z,2175
2016-05-15T10:01:15.826Z,330
2016-05-15T10:02:15.812Z,500
2016-05-15T10:03:15.644Z,1650
2016-05-15T10:04:16.068Z,1555
2016-05-15T10:05:16.055Z,1550
2016-05-15T10:06:15.761Z,1370
2016-05-15T10:07:15.748Z,1665
2016-05-15T10:08:15.751Z,1890
2016-05-15T10:09:15.738Z,1775
2016-05-15T10:10:15.583Z,1315
2016-05-15T10:11:15.571Z,560
2016-05-15T10:12:15.731Z,1470
2016-05-15T10:13:15.717Z,1205
2016-05-15T10:14:15.719Z,1420
2016-05-15T10:15:15.692Z,2240
2016-05-15T10:16:15.413Z,470
2016-05-15T10:17:15.682Z,445
2016-05-15T10:18:15.699Z,455
2016-05-15T10:19:15.688Z,380
2016-05-15T10:20:15.893Z,310
2016-05-15T10:21:15.380Z,280
2016-05-15T10:22:15.663Z,280
2016-05-15T10:23:15.525Z,275
2016-05-15T10:24:15.669Z,410
2016-05-15T10:25:15.656Z,890
2016-05-15T10:26:15.502Z,935
2016-05-15T10:27:15.489Z,2295
2016-05-15T10:28:15.742Z,2470
2016-05-15T10:29:15.526Z,695
2016-05-15T10:30:15.670Z,545
2016-05-15T10:31:15.515Z,1035
2016-05-15T10:32:15.456Z,380
2016-05-15T10:33:15.631Z,260
2016-05-15T10:34:15.821Z,190
2016-05-15T10:35:15.605Z,135
2016-05-15T10:36:15.591Z,100
2016-05-15T10:37:15.595Z,80
2016-05-15T10:38:15.410Z,70
2016-05-15T10:39:15.569Z,70
2016-05-15T10:40:15.571Z,70
2016-05-15T10:41:15.247Z,80
2016-05-15T10:42:15.545Z,110
2016-05-15T10:43:15.392Z,180
2016-05-15T10:44:15.535Z,245
2016-05-15T10:45:15.507Z,285
2016-05-15T10:46:15.697Z,340
2016-05-15T10:47:15.481Z,435
2016-05-15T10:48:15.171Z,780
2016-05-15T10:49:15.502Z,985
2016-05-15T10:50:15.488Z,1250
2016-05-15T10:51:15.461Z,2280
2016-05-15T10:52:15.291Z,2240
2016-05-15T10:53:15.449Z,2245
2016-05-15T10:54:15.406Z,300
2016-05-15T10:55:15.408Z,240
2016-05-15T10:56:15.396Z,150
2016-05-15T10:57:15.460Z,100
2016-05-15T10:58:15.292Z,80
2016-05-15T10:59:15.387Z,65
2016-05-15T11:00:15.376Z,50
2016-05-15T11:01:15.378Z,45
2016-05-15T11:02:15.365Z,65
2016-05-15T11:03:15.367Z,115
2016-05-15T11:04:15.230Z,200
2016-05-15T11:05:15.231Z,285
2016-05-15T11:06:15.173Z,375
2016-05-15T11:07:15.316Z,510
2016-05-15T11:08:15.303Z,685
2016-05-15T11:09:15.274Z,945
2016-05-15T11:10:14.950Z,1160
2016-05-15T11:11:14.967Z,895
2016-05-15T11:12:15.267Z,1670
2016-05-15T11:13:15.238Z,1785
2016-05-15T11:14:15.256Z,1910
2016-05-15T11:15:15.227Z,2030
2016-05-15T11:16:15.216Z,2235
2016-05-15T11:17:15.202Z,675
2016-05-15T11:18:15.205Z,520
2016-05-15T11:19:15.519Z,345
2016-05-15T11:20:15.132Z,275
2016-05-15T11:21:15.150Z,315
2016-05-15T11:22:15.152Z,385
2016-05-15T11:23:15.155Z,780
2016-05-15T11:24:16.658Z,765
2016-05-15T11:25:15.176Z,2360
2016-05-15T11:26:15.132Z,2450
2016-05-15T11:27:15.104Z,2345
2016-05-15T11:28:15.106Z,2360
2016-05-15T11:29:15.109Z,2310
2016-05-15T11:30:15.487Z,2250
2016-05-15T11:31:15.084Z,2205
2016-05-15T11:32:14.914Z,2045
2016-05-15T11:33:15.089Z,2305
2016-05-15T11:34:15.092Z,1150
2016-05-15T11:35:14.923Z,1785
2016-05-15T11:36:14.909Z,2015
2016-05-15T11:37:15.303Z,1750
2016-05-15T11:38:15.055Z,1475
2016-05-15T11:39:14.745Z,1520
2016-05-15T11:40:15.045Z,1710
2016-05-15T11:41:14.720Z,1910
2016-05-15T11:42:15.081Z,2170
2016-05-15T11:43:15.209Z,2220
2016-05-15T11:44:15.024Z,2200
2016-05-15T11:45:15.028Z,1425
2016-05-15T11:46:14.889Z,1355
2016-05-15T11:47:15.033Z,2600
2016-05-15T11:48:14.863Z,2710
2016-05-15T11:49:15.460Z,980
2016-05-15T11:50:14.556Z,2500
2016-05-15T11:51:15.013Z,2630
2016-05-15T11:52:15.030Z,2735
2016-05-15T11:53:14.846Z,1300
2016-05-15T11:54:15.254Z,625
2016-05-15T11:55:15.023Z,660
2016-05-15T11:56:15.025Z,750
2016-05-15T11:57:15.013Z,2355
2016-05-15T11:58:14.891Z,2485
2016-05-15T11:59:14.893Z,2010
2016-05-15T12:00:15.067Z,1580
2016-05-15T12:01:15.007Z,2275
2016-05-15T12:02:14.823Z,2420
2016-05-15T12:03:15.029Z,2440
2016-05-15T12:04:15.016Z,2415
2016-05-15T12:05:15.315Z,2430
2016-05-15T12:06:14.990Z,2420
2016-05-15T12:07:14.977Z,2500
2016-05-15T12:08:14.839Z,680
2016-05-15T12:09:14.842Z,775
2016-05-15T12:10:15.001Z,2360
2016-05-15T12:11:14.988Z,1970
2016-05-15T12:12:14.975Z,2275
2016-05-15T12:13:14.994Z,1750
2016-05-15T12:14:14.981Z,2180
2016-05-15T12:15:14.967Z,2110
2016-05-15T12:16:14.986Z,2150
2016-05-15T12:17:14.832Z,2195
2016-05-15T12:18:14.835Z,2250
2016-05-15T12:19:14.821Z,2335
2016-05-15T12:20:14.902Z,2320
2016-05-15T12:21:14.812Z,2380
2016-05-15T12:22:14.971Z,2220
2016-05-15T12:23:14.817Z,2125
2016-05-15T12:24:14.960Z,2175
2016-05-15T12:25:14.963Z,2295
2016-05-15T12:26:14.949Z,2480
2016-05-15T12:27:14.969Z,505
2016-05-15T12:28:14.659Z,755
2016-05-15T12:29:14.833Z,450
2016-05-15T12:30:14.992Z,530
2016-05-15T12:31:14.667Z,405
2016-05-15T12:32:14.982Z,430
2016-05-15T12:33:14.969Z,310
2016-05-15T12:34:14.971Z,190
2016-05-15T12:35:15.506Z,150
2016-05-15T12:36:14.805Z,115
2016-05-15T12:37:14.964Z,90
2016-05-15T12:38:14.811Z,75
2016-05-15T12:39:14.970Z,70
2016-05-15T12:40:14.942Z,85
2016-05-15T12:41:14.647Z,125
2016-05-15T12:42:14.931Z,205
2016-05-15T12:43:14.949Z,320
2016-05-15T12:44:14.780Z,685
2016-05-15T12:45:14.922Z,400
2016-05-15T12:46:14.926Z,385
2016-05-15T12:47:15.147Z,310
2016-05-15T12:48:14.931Z,195
2016-05-15T12:49:14.591Z,155
2016-05-15T12:50:15.061Z,170
2016-05-15T12:51:14.924Z,245
2016-05-15T12:52:14.894Z,320
2016-05-15T12:53:14.741Z,510
2016-05-15T12:54:14.572Z,1175
2016-05-15T12:55:14.872Z,1260
2016-05-15T12:56:14.859Z,2275
2016-05-15T12:57:14.549Z,2225
2016-05-15T12:58:14.833Z,1765
2016-05-15T12:59:14.836Z,555
2016-05-15T13:00:14.682Z,475
2016-05-15T13:01:14.841Z,605
2016-05-15T13:02:14.843Z,680
2016-05-15T13:03:14.659Z,425
2016-05-15T13:04:14.801Z,375
2016-05-15T13:05:14.884Z,385
2016-05-15T13:06:14.807Z,350
2016-05-15T13:07:14.639Z,330
2016-05-15T13:08:14.781Z,290
2016-05-15T13:09:14.784Z,235
2016-05-15T13:10:14.317Z,260
2016-05-15T13:11:14.602Z,265
2016-05-15T13:12:14.762Z,300
2016-05-15T13:13:14.592Z,450
2016-05-15T13:14:14.751Z,450
2016-05-15T13:15:14.581Z,430
2016-05-15T13:16:14.600Z,380
2016-05-15T13:17:14.744Z,2065
2016-05-15T13:18:14.559Z,690
2016-05-15T13:19:14.733Z,475
2016-05-15T13:20:14.533Z,490
2016-05-15T13:21:14.722Z,410
2016-05-15T13:22:14.585Z,305
2016-05-15T13:23:14.697Z,170
2016-05-15T13:24:14.730Z,120
2016-05-15T13:25:14.516Z,110
2016-05-15T13:26:14.674Z,100
2016-05-15T13:27:14.363Z,85
2016-05-15T13:28:14.648Z,75
2016-05-15T13:29:14.666Z,80
2016-05-15T13:30:14.653Z,100
2016-05-15T13:31:14.485Z,125
2016-05-15T13:32:14.612Z,140
2016-05-15T13:33:14.302Z,160
2016-05-15T13:34:14.336Z,175
2016-05-15T13:35:14.151Z,175
2016-05-15T13:36:14.435Z,160
2016-05-15T13:37:14.594Z,155
2016-05-15T13:38:14.409Z,160
2016-05-15T13:39:14.412Z,170
2016-05-15T13:40:14.540Z,160
2016-05-15T13:41:14.386Z,140
2016-05-15T13:42:14.373Z,120
2016-05-15T13:43:16.906Z,110
2016-05-15T13:44:14.504Z,110
2016-05-15T13:45:14.491Z,115
2016-05-15T13:46:14.494Z,115
2016-05-15T13:47:14.325Z,115
2016-05-15T13:48:14.499Z,125
2016-05-15T13:49:14.486Z,140
2016-05-15T13:50:14.316Z,145
2016-05-15T13:51:14.303Z,140
2016-05-15T13:52:14.431Z,135
2016-05-15T13:53:14.418Z,125
2016-05-15T13:54:14.249Z,115
2016-05-15T13:55:14.252Z,115
2016-05-15T13:56:14.395Z,130
2016-05-15T13:57:14.257Z,150
2016-05-15T13:58:14.213Z,145
2016-05-15T13:59:30.185Z,140
2016-05-15T14:00:14.360Z,145
2016-05-15T14:01:14.330Z,150
2016-05-15T14:02:14.458Z,160
2016-05-15T14:03:14.304Z,155
2016-05-15T14:04:14.479Z,155